createdAt,value
2018-01-12T00:00:24.136Z,3.34
2018-01-12T00:01:23.829Z,3.3
2018-01-12T00:02:23.982Z,3.35
2018-01-12T00:03:23.801Z,3.32
2018-01-12T00:04:24.076Z,3.35
2018-01-12T00:05:24.038Z,3.29
2018-01-12T00:06:23.753Z,3.29
2018-01-12T00:07:23.744Z,3.32
2018-01-12T00:08:24.264Z,3.34
2018-01-12T00:09:24.265Z,3.43
2018-01-12T00:10:23.688Z,3.4
2018-01-12T00:11:23.673Z,3.42
2018-01-12T00:12:23.931Z,3.46
2018-01-12T00:13:23.913Z,3.46
2018-01-12T00:14:23.902Z,3.45
2018-01-12T00:15:23.903Z,3.39
2018-01-12T00:16:23.867Z,3.42
2018-01-12T00:17:23.579Z,3.4
2018-01-12T00:18:23.833Z,3.39
2018-01-12T00:19:23.827Z,3.39
2018-01-12T00:20:23.806Z,3.42
2018-01-12T00:21:23.523Z,3.37
2018-01-12T00:22:23.501Z,3.39
2018-01-12T00:23:24.047Z,3.4
2018-01-12T00:24:23.742Z,3.42
2018-01-12T00:25:23.723Z,3.43
2018-01-12T00:26:23.460Z,3.46
2018-01-12T00:27:23.691Z,3.45
2018-01-12T00:28:23.976Z,3.46
2018-01-12T00:29:23.704Z,3.45
2018-01-12T00:30:23.648Z,3.42
2018-01-12T00:31:23.376Z,3.53
2018-01-12T00:32:23.630Z,3.51
2018-01-12T00:33:23.601Z,3.48
2018-01-12T00:34:23.599Z,3.49
2018-01-12T00:35:23.297Z,3.46
2018-01-12T00:36:23.830Z,3.45
2018-01-12T00:37:23.541Z,3.53
2018-01-12T00:38:23.250Z,3.48
2018-01-12T00:39:23.237Z,3.49
2018-01-12T00:40:23.500Z,3.56
2018-01-12T00:41:23.480Z,3.46
2018-01-12T00:42:23.190Z,3.48
2018-01-12T00:43:23.464Z,3.51
2018-01-12T00:44:23.168Z,3.54
2018-01-12T00:45:23.164Z,3.6
2018-01-12T00:46:23.128Z,3.57
2018-01-12T00:47:23.394Z,3.56
2018-01-12T00:48:23.367Z,3.56
2018-01-12T00:49:23.352Z,3.54
2018-01-12T00:50:23.334Z,3.56
2018-01-12T00:51:23.325Z,3.57
2018-01-12T00:52:23.037Z,3.56
2018-01-12T00:53:23.311Z,3.53
2018-01-12T00:54:23.284Z,3.66
2018-01-12T00:55:23.256Z,3.66
2018-01-12T00:56:22.969Z,3.6
2018-01-12T00:57:23.226Z,3.66
2018-01-12T00:58:23.232Z,3.54
2018-01-12T00:59:23.214Z,3.6
2018-01-12T01:00:23.181Z,3.63
2018-01-12T01:01:23.168Z,3.63
2018-01-12T01:02:22.878Z,3.67
2018-01-12T01:03:23.133Z,3.64
2018-01-12T01:04:23.118Z,3.74
2018-01-12T01:05:22.831Z,3.6
2018-01-12T01:06:23.089Z,3.71
2018-01-12T01:07:22.823Z,3.67
2018-01-12T01:08:22.791Z,3.66
2018-01-12T01:09:23.315Z,3.69
2018-01-12T01:10:23.040Z,3.75
2018-01-12T01:11:23.280Z,3.69
2018-01-12T01:12:22.722Z,3.76
2018-01-12T01:13:22.724Z,3.66
2018-01-12T01:14:22.962Z,3.69
2018-01-12T01:15:22.961Z,3.72
2018-01-12T01:16:22.693Z,3.67
2018-01-12T01:17:22.917Z,3.69
2018-01-12T01:18:22.916Z,3.78
2018-01-12T01:19:22.885Z,3.79
2018-01-12T01:20:22.870Z,3.71
2018-01-12T01:21:23.136Z,3.78
2018-01-12T01:22:22.575Z,3.66
2018-01-12T01:23:22.825Z,3.66
2018-01-12T01:24:23.083Z,3.64
2018-01-12T01:25:22.796Z,3.64
2018-01-12T01:26:22.778Z,3.64
2018-01-12T01:27:22.490Z,3.75
2018-01-12T01:28:23.023Z,3.67
2018-01-12T01:29:22.459Z,3.64
2018-01-12T01:30:22.719Z,3.67
2018-01-12T01:31:22.978Z,3.78
2018-01-12T01:32:22.687Z,3.67
2018-01-12T01:33:22.698Z,3.74
2018-01-12T01:34:22.389Z,3.67
2018-01-12T01:35:22.911Z,3.74
2018-01-12T01:36:22.352Z,3.72
2018-01-12T01:37:22.614Z,3.76
2018-01-12T01:38:22.594Z,3.72
2018-01-12T01:39:22.579Z,3.81
2018-01-12T01:40:22.571Z,3.79
2018-01-12T01:41:22.818Z,3.74
2018-01-12T01:42:22.538Z,3.79
2018-01-12T01:43:22.244Z,3.76
2018-01-12T01:44:22.229Z,3.76
2018-01-12T01:45:22.538Z,3.84
2018-01-12T01:46:22.469Z,3.85
2018-01-12T01:47:22.456Z,3.85
2018-01-12T01:48:22.457Z,3.76
2018-01-12T01:49:22.152Z,3.85
2018-01-12T01:50:22.431Z,3.78
2018-01-12T01:51:22.125Z,3.86
2018-01-12T01:52:22.377Z,3.84
2018-01-12T01:53:22.634Z,3.89
2018-01-12T01:54:22.075Z,3.85
2018-01-12T01:55:22.334Z,3.82
2018-01-12T01:56:22.316Z,3.81
2018-01-12T01:57:22.307Z,3.81
2018-01-12T01:58:22.285Z,3.82
2018-01-12T01:59:22.551Z,3.89
2018-01-12T02:00:22.284Z,3.78
2018-01-12T02:01:22.242Z,3.84
2018-01-12T02:02:21.955Z,3.85
2018-01-12T02:03:22.208Z,3.76
2018-01-12T02:04:22.194Z,3.81
2018-01-12T02:05:22.176Z,3.86
2018-01-12T02:06:22.174Z,3.79
2018-01-12T02:07:21.874Z,3.84
2018-01-12T02:08:21.861Z,3.84
2018-01-12T02:09:22.400Z,3.84
2018-01-12T02:10:22.384Z,3.85
2018-01-12T02:11:22.086Z,3.82
2018-01-12T02:12:22.074Z,3.84
2018-01-12T02:13:22.058Z,3.79
2018-01-12T02:14:22.040Z,3.84
2018-01-12T02:15:22.026Z,3.84
2018-01-12T02:16:22.012Z,3.86
2018-01-12T02:17:21.993Z,3.82
2018-01-12T02:18:21.717Z,3.82
2018-01-12T02:19:21.981Z,3.84
2018-01-12T02:20:21.950Z,3.85
2018-01-12T02:21:21.662Z,3.81
2018-01-12T02:22:21.941Z,3.86
2018-01-12T02:23:22.185Z,3.75
2018-01-12T02:24:21.891Z,3.78
2018-01-12T02:25:21.871Z,3.79
2018-01-12T02:26:21.587Z,3.81
2018-01-12T02:27:21.851Z,3.81
2018-01-12T02:28:21.577Z,3.84
2018-01-12T02:29:21.539Z,3.82
2018-01-12T02:30:21.525Z,3.76
2018-01-12T02:31:21.798Z,3.84
2018-01-12T02:32:22.041Z,3.84
2018-01-12T02:33:21.502Z,3.85
2018-01-12T02:34:22.013Z,3.86
2018-01-12T02:35:21.730Z,3.81
2018-01-12T02:36:21.432Z,3.79
2018-01-12T02:37:21.687Z,3.81
2018-01-12T02:38:21.403Z,3.86
2018-01-12T02:39:21.388Z,3.78
2018-01-12T02:40:21.668Z,3.84
2018-01-12T02:41:21.629Z,3.81
2018-01-12T02:42:21.694Z,3.82
2018-01-12T02:43:21.602Z,3.82
2018-01-12T02:44:21.324Z,3.84
2018-01-12T02:45:21.296Z,3.84
2018-01-12T02:46:21.293Z,3.9
2018-01-12T02:47:21.561Z,3.85
2018-01-12T02:48:21.532Z,3.82
2018-01-12T02:49:21.235Z,3.86
2018-01-12T02:50:21.492Z,3.85
2018-01-12T02:51:21.483Z,3.85
2018-01-12T02:52:21.465Z,3.84
2018-01-12T02:53:21.449Z,3.85
2018-01-12T02:54:21.445Z,3.89
2018-01-12T02:55:21.141Z,3.79
2018-01-12T02:56:21.396Z,3.75
2018-01-12T02:57:21.383Z,3.85
2018-01-12T02:58:21.646Z,3.84
2018-01-12T02:59:21.351Z,3.78
2018-01-12T03:00:21.345Z,3.79
2018-01-12T03:01:21.328Z,3.74
2018-01-12T03:02:21.327Z,3.82
2018-01-12T03:03:21.018Z,3.72
2018-01-12T03:04:21.005Z,3.81
2018-01-12T03:05:21.263Z,3.74
2018-01-12T03:06:20.971Z,3.81
2018-01-12T03:07:20.955Z,3.82
2018-01-12T03:08:21.217Z,3.78
2018-01-12T03:09:20.929Z,3.64
2018-01-12T03:10:21.459Z,3.64
2018-01-12T03:11:20.904Z,3.78
2018-01-12T03:12:21.153Z,3.64
2018-01-12T03:13:21.138Z,3.64
2018-01-12T03:14:20.855Z,3.66
2018-01-12T03:15:21.504Z,3.64
2018-01-12T03:16:21.371Z,3.72
2018-01-12T03:17:21.304Z,3.74
2018-01-12T03:18:21.098Z,3.75
2018-01-12T03:19:21.524Z,3.72
2018-01-12T03:20:20.940Z,3.79
2018-01-12T03:21:21.550Z,3.76
2018-01-12T03:22:21.279Z,3.74
2018-01-12T03:23:20.713Z,3.79
2018-01-12T03:24:20.695Z,3.74
2018-01-12T03:25:21.228Z,3.78
2018-01-12T03:26:20.961Z,3.82
2018-01-12T03:27:20.660Z,3.81
2018-01-12T03:28:20.637Z,3.74
2018-01-12T03:29:20.935Z,3.75
2018-01-12T03:30:20.882Z,3.75
2018-01-12T03:31:21.135Z,3.69
2018-01-12T03:32:21.123Z,3.71
2018-01-12T03:33:20.826Z,3.71
2018-01-12T03:34:20.543Z,3.71
2018-01-12T03:35:20.807Z,3.75
2018-01-12T03:36:20.516Z,3.64
2018-01-12T03:37:20.826Z,3.75
2018-01-12T03:38:20.750Z,3.69
2018-01-12T03:39:20.463Z,3.69
2018-01-12T03:40:20.722Z,3.67
2018-01-12T03:41:20.433Z,3.66
2018-01-12T03:42:20.979Z,3.72
2018-01-12T03:43:20.402Z,3.63
2018-01-12T03:44:20.931Z,3.72
2018-01-12T03:45:20.647Z,3.66
2018-01-12T03:46:20.356Z,3.69
2018-01-12T03:47:20.614Z,3.71
2018-01-12T03:48:20.879Z,3.74
2018-01-12T03:49:20.581Z,3.66
2018-01-12T03:50:20.584Z,3.66
2018-01-12T03:51:20.550Z,3.71
2018-01-12T03:52:20.536Z,3.79
2018-01-12T03:53:20.542Z,3.67
2018-01-12T03:54:20.779Z,3.69
2018-01-12T03:55:20.492Z,3.69
2018-01-12T03:56:20.204Z,3.67
2018-01-12T03:57:20.457Z,3.69
2018-01-12T03:58:20.445Z,3.75
2018-01-12T03:59:20.428Z,3.75
2018-01-12T04:00:20.413Z,3.64
2018-01-12T04:01:20.149Z,3.64
2018-01-12T04:02:20.402Z,3.66
2018-01-12T04:03:20.098Z,3.64
2018-01-12T04:04:20.641Z,3.74
2018-01-12T04:05:20.064Z,3.67
2018-01-12T04:06:20.630Z,3.74
2018-01-12T04:07:20.600Z,3.69
2018-01-12T04:08:20.017Z,3.67
2018-01-12T04:09:20.003Z,3.76
2018-01-12T04:10:20.528Z,3.79
2018-01-12T04:11:19.973Z,3.79
2018-01-12T04:12:20.514Z,3.76
2018-01-12T04:13:19.944Z,3.82
2018-01-12T04:14:20.218Z,3.74
2018-01-12T04:15:19.911Z,3.79
2018-01-12T04:16:20.167Z,3.82
2018-01-12T04:17:20.151Z,3.76
2018-01-12T04:18:20.162Z,3.75
2018-01-12T04:19:20.118Z,3.75
2018-01-12T04:20:20.104Z,3.75
2018-01-12T04:21:19.818Z,3.82
2018-01-12T04:22:20.076Z,3.71
2018-01-12T04:23:19.803Z,3.79
2018-01-12T04:24:20.045Z,3.76
2018-01-12T04:25:20.048Z,3.74
2018-01-12T04:26:19.740Z,3.78
2018-01-12T04:27:20.021Z,3.75
2018-01-12T04:28:19.998Z,3.79
2018-01-12T04:29:19.698Z,3.82
2018-01-12T04:30:19.679Z,3.79
2018-01-12T04:31:19.938Z,3.78
2018-01-12T04:32:20.191Z,3.74
2018-01-12T04:33:19.907Z,3.78
2018-01-12T04:34:19.707Z,3.82
2018-01-12T04:35:19.876Z,3.79
2018-01-12T04:36:19.758Z,3.86
2018-01-12T04:37:19.854Z,3.85
2018-01-12T04:38:19.860Z,3.81
2018-01-12T04:39:19.686Z,3.79
2018-01-12T04:40:19.796Z,3.82
2018-01-12T04:41:19.788Z,3.85
2018-01-12T04:42:19.514Z,3.79
2018-01-12T04:43:19.751Z,3.82
2018-01-12T04:44:19.490Z,3.85
2018-01-12T04:45:19.999Z,3.79
2018-01-12T04:46:19.435Z,3.82
2018-01-12T04:47:19.984Z,3.82
2018-01-12T04:48:19.681Z,3.76
2018-01-12T04:49:19.659Z,3.75
2018-01-12T04:50:19.379Z,3.74
2018-01-12T04:51:19.358Z,3.79
2018-01-12T04:52:19.630Z,3.71
2018-01-12T04:53:19.341Z,3.76
2018-01-12T04:54:19.639Z,3.79
2018-01-12T04:55:19.312Z,3.74
2018-01-12T04:56:19.281Z,3.72
2018-01-12T04:57:19.270Z,3.72
2018-01-12T04:58:19.275Z,3.82
2018-01-12T04:59:19.245Z,3.82
2018-01-12T05:00:19.494Z,3.72
2018-01-12T05:01:19.498Z,3.76
2018-01-12T05:02:19.193Z,3.72
2018-01-12T05:03:19.447Z,3.76
2018-01-12T05:04:19.438Z,3.74
2018-01-12T05:05:19.416Z,3.79
2018-01-12T05:06:19.416Z,3.72
2018-01-12T05:07:19.387Z,3.71
2018-01-12T05:08:19.376Z,3.75
2018-01-12T05:09:19.086Z,3.72
2018-01-12T05:10:19.344Z,3.69
2018-01-12T05:11:19.611Z,3.81
2018-01-12T05:12:19.039Z,3.67
2018-01-12T05:13:19.315Z,3.61
2018-01-12T05:14:19.556Z,3.71
2018-01-12T05:15:19.268Z,3.69
2018-01-12T05:16:19.249Z,3.64
2018-01-12T05:17:18.964Z,3.63
2018-01-12T05:18:19.216Z,3.58
2018-01-12T05:19:19.222Z,3.64
2018-01-12T05:20:19.460Z,3.78
2018-01-12T05:21:18.900Z,3.67
2018-01-12T05:22:19.155Z,3.71
2018-01-12T05:23:19.137Z,3.71
2018-01-12T05:24:19.120Z,3.78
2018-01-12T05:25:19.113Z,3.69
2018-01-12T05:26:18.819Z,3.67
2018-01-12T05:27:18.816Z,3.76
2018-01-12T05:28:18.789Z,3.72
2018-01-12T05:29:19.044Z,3.69
2018-01-12T05:30:18.757Z,3.66
2018-01-12T05:31:19.018Z,3.69
2018-01-12T05:32:19.290Z,3.71
2018-01-12T05:33:18.715Z,3.75
2018-01-12T05:34:18.985Z,3.66
2018-01-12T05:35:18.680Z,3.64
2018-01-12T05:36:18.664Z,3.76
2018-01-12T05:37:18.649Z,3.67
2018-01-12T05:38:18.909Z,3.69
2018-01-12T05:39:19.160Z,3.74
2018-01-12T05:40:18.602Z,3.67
2018-01-12T05:41:18.586Z,3.66
2018-01-12T05:42:18.571Z,3.81
2018-01-12T05:43:18.555Z,3.74
2018-01-12T05:44:18.812Z,3.78
2018-01-12T05:45:18.524Z,3.69
2018-01-12T05:46:18.781Z,3.69
2018-01-12T05:47:18.766Z,3.64
2018-01-12T05:48:18.481Z,3.76
2018-01-12T05:49:18.941Z,3.78
2018-01-12T05:50:18.729Z,3.76
2018-01-12T05:51:18.453Z,3.67
2018-01-12T05:52:18.689Z,3.69
2018-01-12T05:53:18.685Z,3.76
2018-01-12T05:54:18.387Z,3.79
2018-01-12T05:55:18.694Z,3.75
2018-01-12T05:56:18.647Z,3.78
2018-01-12T05:57:18.632Z,3.76
2018-01-12T05:58:18.599Z,3.64
2018-01-12T05:59:18.600Z,3.75
2018-01-12T06:00:18.294Z,3.82
2018-01-12T06:01:18.552Z,3.64
2018-01-12T06:02:18.541Z,3.76
2018-01-12T06:03:18.258Z,3.76
2018-01-12T06:04:18.774Z,3.66
2018-01-12T06:05:18.217Z,3.64
2018-01-12T06:06:18.473Z,3.75
2018-01-12T06:07:18.458Z,3.69
2018-01-12T06:08:18.457Z,3.82
2018-01-12T06:09:18.154Z,3.74
2018-01-12T06:10:18.432Z,3.66
2018-01-12T06:11:18.672Z,3.76
2018-01-12T06:12:18.380Z,3.75
2018-01-12T06:13:18.364Z,3.78
2018-01-12T06:14:18.348Z,3.79
2018-01-12T06:15:18.062Z,3.82
2018-01-12T06:16:18.047Z,3.74
2018-01-12T06:17:18.301Z,3.78
2018-01-12T06:18:18.017Z,3.75
2018-01-12T06:19:18.013Z,3.76
2018-01-12T06:20:18.257Z,3.76
2018-01-12T06:21:18.240Z,3.76
2018-01-12T06:22:17.964Z,3.67
2018-01-12T06:23:17.938Z,3.67
2018-01-12T06:24:18.204Z,3.72
2018-01-12T06:25:17.909Z,3.72
2018-01-12T06:26:18.166Z,3.67
2018-01-12T06:27:18.155Z,3.74
2018-01-12T06:28:18.459Z,3.76
2018-01-12T06:29:17.869Z,3.75
2018-01-12T06:30:17.845Z,3.74
2018-01-12T06:31:18.086Z,3.74
2018-01-12T06:32:18.091Z,3.78
2018-01-12T06:33:18.055Z,3.79
2018-01-12T06:34:18.061Z,3.71
2018-01-12T06:35:18.043Z,3.71
2018-01-12T06:36:17.740Z,3.71
2018-01-12T06:37:18.000Z,3.74
2018-01-12T06:38:17.706Z,3.69
2018-01-12T06:39:18.237Z,3.64
2018-01-12T06:40:17.950Z,3.75
2018-01-12T06:41:17.663Z,3.72
2018-01-12T06:42:17.645Z,3.67
2018-01-12T06:43:17.646Z,3.61
2018-01-12T06:44:17.889Z,3.66
2018-01-12T06:45:17.599Z,3.61
2018-01-12T06:46:17.870Z,3.74
2018-01-12T06:47:17.840Z,3.67
2018-01-12T06:48:18.112Z,3.74
2018-01-12T06:49:17.537Z,3.72
2018-01-12T06:50:17.522Z,3.74
2018-01-12T06:51:17.507Z,3.75
2018-01-12T06:52:17.493Z,3.72
2018-01-12T06:53:17.749Z,3.67
2018-01-12T06:54:17.466Z,3.74
2018-01-12T06:55:17.719Z,3.69
2018-01-12T06:56:17.455Z,3.69
2018-01-12T06:57:17.687Z,3.72
2018-01-12T06:58:17.400Z,3.74
2018-01-12T06:59:17.384Z,3.66
2018-01-12T07:00:17.912Z,3.74
2018-01-12T07:01:17.353Z,3.74
2018-01-12T07:02:17.885Z,3.75
2018-01-12T07:03:17.864Z,3.58
2018-01-12T07:04:17.872Z,3.66
2018-01-12T07:05:17.575Z,3.66
2018-01-12T07:06:17.586Z,3.66
2018-01-12T07:07:17.806Z,3.63
2018-01-12T07:08:17.522Z,3.64
2018-01-12T07:09:17.230Z,3.71
2018-01-12T07:10:17.757Z,3.71
2018-01-12T07:11:17.198Z,3.6
2018-01-12T07:12:17.458Z,3.64
2018-01-12T07:13:17.447Z,3.66
2018-01-12T07:14:17.423Z,3.56
2018-01-12T07:15:17.410Z,3.6
2018-01-12T07:16:17.395Z,3.48
2018-01-12T07:17:17.125Z,3.61
2018-01-12T07:18:17.090Z,3.54
2018-01-12T07:19:17.080Z,3.51
2018-01-12T07:20:17.629Z,3.54
2018-01-12T07:21:17.313Z,3.66
2018-01-12T07:22:17.305Z,3.51
2018-01-12T07:23:17.014Z,3.57
2018-01-12T07:24:17.274Z,3.51
2018-01-12T07:25:16.979Z,3.53
2018-01-12T07:26:16.965Z,3.49
2018-01-12T07:27:17.224Z,3.61
2018-01-12T07:28:16.986Z,3.48
2018-01-12T07:29:17.191Z,3.51
2018-01-12T07:30:17.179Z,3.58
2018-01-12T07:31:17.435Z,3.64
2018-01-12T07:32:17.147Z,3.6
2018-01-12T07:33:16.858Z,3.63
2018-01-12T07:34:17.115Z,3.67
2018-01-12T07:35:16.829Z,3.71
2018-01-12T07:36:16.812Z,3.71
2018-01-12T07:37:17.068Z,3.76
2018-01-12T07:38:17.062Z,3.63
2018-01-12T07:39:16.766Z,3.72
2018-01-12T07:40:17.027Z,3.78
2018-01-12T07:41:16.735Z,3.76
2018-01-12T07:42:16.719Z,3.82
2018-01-12T07:43:16.704Z,3.81
2018-01-12T07:44:16.981Z,3.81
2018-01-12T07:45:16.691Z,3.79
2018-01-12T07:46:16.936Z,3.82
2018-01-12T07:47:16.915Z,3.82
2018-01-12T07:48:16.914Z,3.86
2018-01-12T07:49:16.888Z,3.84
2018-01-12T07:50:16.882Z,3.86
2018-01-12T07:51:17.128Z,3.78
2018-01-12T07:52:16.850Z,3.84
2018-01-12T07:53:16.832Z,3.82
2018-01-12T07:54:16.542Z,3.82
2018-01-12T07:55:16.790Z,3.85
2018-01-12T07:56:16.826Z,3.85
2018-01-12T07:57:16.489Z,3.86
2018-01-12T07:58:16.772Z,3.85
2018-01-12T07:59:16.456Z,3.89
2018-01-12T08:00:16.457Z,3.92
2018-01-12T08:01:16.698Z,3.92
2018-01-12T08:02:16.416Z,4
2018-01-12T08:03:16.935Z,3.97
2018-01-12T08:04:16.401Z,4.1
2018-01-12T08:05:16.364Z,4.08
2018-01-12T08:06:16.349Z,4.1
2018-01-12T08:07:16.610Z,4.1
2018-01-12T08:08:16.591Z,4.1
2018-01-12T08:09:16.327Z,4.14
2018-01-12T08:10:16.630Z,4.1
2018-01-12T08:11:16.548Z,4.21
2018-01-12T08:12:16.532Z,4.15
2018-01-12T08:13:16.241Z,4.15
2018-01-12T08:14:16.524Z,4.3
2018-01-12T08:15:16.210Z,4.32
2018-01-12T08:16:16.738Z,4.26
2018-01-12T08:17:16.452Z,4.24
2018-01-12T08:18:16.438Z,4.26
2018-01-12T08:19:16.151Z,4.29
2018-01-12T08:20:16.145Z,4.3
2018-01-12T08:21:16.397Z,4.29
2018-01-12T08:22:16.391Z,4.26
2018-01-12T08:23:16.089Z,4.28
2018-01-12T08:24:16.346Z,4.2
2018-01-12T08:25:16.062Z,4.3
2018-01-12T08:26:16.043Z,4.28
2018-01-12T08:27:16.299Z,4.32
2018-01-12T08:28:16.283Z,4.29
2018-01-12T08:29:15.998Z,4.26
2018-01-12T08:30:15.998Z,4.3
2018-01-12T08:31:16.238Z,4.35
2018-01-12T08:32:16.222Z,4.32
2018-01-12T08:33:15.937Z,4.32
2018-01-12T08:34:15.923Z,4.38
2018-01-12T08:35:15.908Z,4.32
2018-01-12T08:36:16.165Z,4.36
2018-01-12T08:37:16.150Z,4.44
2018-01-12T08:38:16.134Z,4.47
2018-01-12T08:39:16.154Z,4.46
2018-01-12T08:40:15.832Z,4.47
2018-01-12T08:41:16.093Z,4.47
2018-01-12T08:42:16.073Z,4.47
2018-01-12T08:43:16.061Z,4.54
2018-01-12T08:44:15.777Z,4.51
2018-01-12T08:45:15.757Z,4.64
2018-01-12T08:46:15.762Z,4.61
2018-01-12T08:47:16.274Z,4.66
2018-01-12T08:48:15.711Z,4.61
2018-01-12T08:49:15.698Z,4.61
2018-01-12T08:50:16.244Z,4.65
2018-01-12T08:51:15.952Z,4.68
2018-01-12T08:52:15.923Z,4.65
2018-01-12T08:53:16.181Z,4.74
2018-01-12T08:54:15.633Z,4.74
2018-01-12T08:55:15.887Z,4.83
2018-01-12T08:56:15.598Z,4.9
2018-01-12T08:57:15.579Z,4.83
2018-01-12T08:58:15.564Z,4.85
2018-01-12T08:59:15.824Z,4.9
2018-01-12T09:00:15.805Z,4.84
2018-01-12T09:01:15.840Z,4.87
2018-01-12T09:02:15.781Z,4.92
2018-01-12T09:03:15.763Z,4.91
2018-01-12T09:04:15.475Z,4.98
2018-01-12T09:05:15.460Z,5.03
2018-01-12T09:06:15.737Z,5.08
2018-01-12T09:07:15.444Z,4.97
2018-01-12T09:08:15.418Z,5.1
2018-01-12T09:09:15.944Z,5.06
2018-01-12T09:10:15.658Z,5
2018-01-12T09:11:15.375Z,4.94
2018-01-12T09:12:15.363Z,4.94
2018-01-12T09:13:15.906Z,4.95
2018-01-12T09:14:15.606Z,4.85
2018-01-12T09:15:15.315Z,4.79
2018-01-12T09:16:15.301Z,4.69
2018-01-12T09:17:15.287Z,4.71
2018-01-12T09:18:15.815Z,4.71
2018-01-12T09:19:15.796Z,4.66
2018-01-12T09:20:15.242Z,4.66
2018-01-12T09:21:15.793Z,4.64
2018-01-12T09:22:15.483Z,4.74
2018-01-12T09:23:15.471Z,4.78
2018-01-12T09:24:15.453Z,4.85
2018-01-12T09:25:15.716Z,4.94
2018-01-12T09:26:15.424Z,5.05
2018-01-12T09:27:15.408Z,5.06
2018-01-12T09:28:15.399Z,5.1
2018-01-12T09:29:15.378Z,5.09
2018-01-12T09:30:15.636Z,5.09
2018-01-12T09:31:15.352Z,4.97
2018-01-12T09:32:15.337Z,5
2018-01-12T09:33:15.321Z,5
2018-01-12T09:34:15.037Z,5.08
2018-01-12T09:35:15.305Z,5.06
2018-01-12T09:36:15.284Z,5.08
2018-01-12T09:37:14.992Z,5.02
2018-01-12T09:38:14.978Z,4.97
2018-01-12T09:39:14.965Z,4.98
2018-01-12T09:40:15.219Z,4.94
2018-01-12T09:41:15.202Z,4.97
2018-01-12T09:42:15.203Z,4.9
2018-01-12T09:43:14.905Z,4.83
2018-01-12T09:44:15.436Z,4.76
2018-01-12T09:45:14.876Z,4.69
2018-01-12T09:46:15.129Z,4.71
2018-01-12T09:47:15.391Z,4.61
2018-01-12T09:48:14.832Z,4.66
2018-01-12T09:49:15.358Z,4.65
2018-01-12T09:50:15.344Z,4.65
2018-01-12T09:51:15.057Z,4.61
2018-01-12T09:52:14.773Z,4.65
2018-01-12T09:53:15.028Z,4.72
2018-01-12T09:54:15.013Z,4.65
2018-01-12T09:55:14.750Z,4.83
2018-01-12T09:56:14.718Z,4.74
2018-01-12T09:57:15.013Z,4.74
2018-01-12T09:58:14.954Z,4.84
2018-01-12T09:59:14.977Z,4.85
2018-01-12T10:00:14.654Z,4.76
2018-01-12T10:01:14.641Z,4.85
2018-01-12T10:02:14.921Z,4.9
2018-01-12T10:03:14.885Z,4.9
2018-01-12T10:04:14.595Z,4.87
2018-01-12T10:05:14.581Z,4.9
2018-01-12T10:06:14.841Z,4.95
2018-01-12T10:07:14.571Z,5
2018-01-12T10:08:14.541Z,5
2018-01-12T10:09:14.522Z,5.06
2018-01-12T10:10:14.792Z,5.08
2018-01-12T10:11:14.502Z,5.06
2018-01-12T10:12:14.497Z,5.08
2018-01-12T10:13:14.464Z,5.06
2018-01-12T10:14:14.719Z,5.09
2018-01-12T10:15:14.437Z,5.1
2018-01-12T10:16:14.420Z,5.18
2018-01-12T10:17:14.677Z,5.16
2018-01-12T10:18:14.673Z,5.13
2018-01-12T10:19:14.377Z,5.06
2018-01-12T10:20:14.632Z,5.05
2018-01-12T10:21:14.638Z,5.03
2018-01-12T10:22:14.625Z,5.02
2018-01-12T10:23:14.319Z,4.9
2018-01-12T10:24:14.579Z,4.88
2018-01-12T10:25:14.288Z,4.74
2018-01-12T10:26:14.278Z,4.76
2018-01-12T10:27:14.530Z,4.88
2018-01-12T10:28:14.514Z,4.83
2018-01-12T10:29:14.500Z,5
2018-01-12T10:30:14.216Z,4.94
2018-01-12T10:31:14.479Z,5.02
2018-01-12T10:32:14.457Z,5.12
2018-01-12T10:33:14.181Z,5.08
2018-01-12T10:34:14.161Z,5.15
2018-01-12T10:35:14.412Z,5.2
2018-01-12T10:36:14.397Z,5.21
2018-01-12T10:37:14.137Z,5.15
2018-01-12T10:38:14.389Z,5.26
2018-01-12T10:39:14.355Z,5.2
2018-01-12T10:40:14.341Z,5.33
2018-01-12T10:41:14.326Z,5.23
2018-01-12T10:42:14.040Z,5.37
2018-01-12T10:43:14.038Z,5.26
2018-01-12T10:44:14.290Z,5.3
2018-01-12T10:45:13.997Z,5.27
2018-01-12T10:46:14.529Z,5.39
2018-01-12T10:47:13.968Z,5.39
2018-01-12T10:48:14.223Z,5.44
2018-01-12T10:49:14.209Z,5.44
2018-01-12T10:50:14.194Z,5.45
2018-01-12T10:51:13.911Z,5.36
2018-01-12T10:52:14.167Z,5.39
2018-01-12T10:53:13.879Z,5.37
2018-01-12T10:54:13.875Z,5.48
2018-01-12T10:55:13.854Z,5.51
2018-01-12T10:56:14.112Z,5.48
2018-01-12T10:57:14.108Z,5.52
2018-01-12T10:58:13.821Z,5.51
2018-01-12T10:59:13.796Z,5.57
2018-01-12T11:00:13.782Z,5.62
2018-01-12T11:01:13.792Z,5.63
2018-01-12T11:02:14.025Z,5.69
2018-01-12T11:03:14.031Z,5.69
2018-01-12T11:04:13.726Z,5.72
2018-01-12T11:05:13.981Z,5.69
2018-01-12T11:06:13.707Z,5.77
2018-01-12T11:07:13.685Z,5.7
2018-01-12T11:08:13.677Z,5.75
2018-01-12T11:09:13.930Z,5.73
2018-01-12T11:10:14.196Z,5.73
2018-01-12T11:11:13.896Z,5.78
2018-01-12T11:12:13.631Z,5.77
2018-01-12T11:13:13.605Z,5.81
2018-01-12T11:14:13.854Z,5.81
2018-01-12T11:15:13.842Z,5.8
2018-01-12T11:16:13.835Z,5.77
2018-01-12T11:17:13.815Z,5.72
2018-01-12T11:18:13.798Z,5.7
2018-01-12T11:19:13.805Z,5.69
2018-01-12T11:20:13.501Z,5.66
2018-01-12T11:21:13.759Z,5.55
2018-01-12T11:22:13.760Z,5.6
2018-01-12T11:23:13.464Z,5.48
2018-01-12T11:24:13.997Z,5.41
2018-01-12T11:25:13.709Z,5.41
2018-01-12T11:26:13.687Z,5.49
2018-01-12T11:27:13.423Z,5.36
2018-01-12T11:28:13.389Z,5.45
2018-01-12T11:29:13.378Z,5.45
2018-01-12T11:30:13.631Z,5.48
2018-01-12T11:31:13.886Z,5.45
2018-01-12T11:32:13.616Z,5.48
2018-01-12T11:33:13.319Z,5.44
2018-01-12T11:34:13.578Z,5.36
2018-01-12T11:35:13.301Z,5.46
2018-01-12T11:36:13.553Z,5.37
2018-01-12T11:37:13.271Z,5.44
2018-01-12T11:38:13.524Z,5.39
2018-01-12T11:39:13.505Z,5.39
2018-01-12T11:40:13.492Z,5.34
2018-01-12T11:41:13.498Z,5.36
2018-01-12T11:42:13.465Z,5.41
2018-01-12T11:43:13.732Z,5.41
2018-01-12T11:44:13.435Z,5.44
2018-01-12T11:45:13.430Z,5.36
2018-01-12T11:46:13.436Z,5.39
2018-01-12T11:47:13.140Z,5.31
2018-01-12T11:48:13.111Z,5.39
2018-01-12T11:49:13.655Z,5.48
2018-01-12T11:50:13.352Z,5.54
2018-01-12T11:51:13.090Z,5.64
2018-01-12T11:52:13.061Z,5.6
2018-01-12T11:53:13.039Z,5.69
2018-01-12T11:54:13.313Z,5.75
2018-01-12T11:55:13.279Z,5.75
2018-01-12T11:56:12.995Z,5.75
2018-01-12T11:57:12.980Z,5.85
2018-01-12T11:58:13.239Z,5.91
2018-01-12T11:59:12.956Z,5.89
2018-01-12T12:00:12.940Z,5.85
2018-01-12T12:01:12.926Z,5.8
2018-01-12T12:02:13.245Z,5.73
2018-01-12T12:03:13.442Z,5.73
2018-01-12T12:04:13.159Z,5.73
2018-01-12T12:05:13.140Z,5.67
2018-01-12T12:06:12.861Z,5.66
2018-01-12T12:07:13.437Z,5.6
2018-01-12T12:08:13.099Z,5.55
2018-01-12T12:09:13.105Z,5.57
2018-01-12T12:10:12.821Z,5.69
2018-01-12T12:11:13.057Z,5.6
2018-01-12T12:12:12.779Z,5.6
2018-01-12T12:13:12.759Z,5.48
2018-01-12T12:14:13.298Z,5.49
2018-01-12T12:15:12.734Z,5.45
2018-01-12T12:16:12.719Z,5.34
2018-01-12T12:17:12.701Z,5.42
2018-01-12T12:18:12.969Z,5.37
2018-01-12T12:19:12.948Z,5.36
2018-01-12T12:20:12.940Z,5.39
2018-01-12T12:21:12.914Z,5.26
2018-01-12T12:22:13.169Z,5.28
2018-01-12T12:23:12.617Z,5.27
2018-01-12T12:24:12.881Z,5.24
2018-01-12T12:25:13.160Z,5.26
2018-01-12T12:26:12.856Z,5.2
2018-01-12T12:27:13.100Z,5.26
2018-01-12T12:28:13.088Z,5.21
2018-01-12T12:29:12.802Z,5.16
2018-01-12T12:30:13.057Z,5.34
2018-01-12T12:31:12.502Z,5.26
2018-01-12T12:32:12.490Z,5.27
2018-01-12T12:33:12.477Z,5.24
2018-01-12T12:34:12.465Z,5.15
2018-01-12T12:35:12.450Z,5.21
2018-01-12T12:36:12.443Z,5.23
2018-01-12T12:37:12.692Z,5.18
2018-01-12T12:38:12.681Z,5.09
2018-01-12T12:39:12.389Z,5.06
2018-01-12T12:40:12.389Z,5.05
2018-01-12T12:41:12.359Z,4.95
2018-01-12T12:42:12.615Z,4.91
2018-01-12T12:43:12.330Z,4.91
2018-01-12T12:44:12.316Z,4.9
2018-01-12T12:45:12.303Z,4.85
2018-01-12T12:46:12.286Z,4.79
2018-01-12T12:47:12.544Z,4.74
2018-01-12T12:48:12.844Z,4.76
2018-01-12T12:49:12.512Z,4.74
2018-01-12T12:50:12.228Z,4.76
2018-01-12T12:51:12.497Z,4.74
2018-01-12T12:52:12.741Z,4.69
2018-01-12T12:53:12.454Z,4.66
2018-01-12T12:54:12.438Z,4.66
2018-01-12T12:55:12.156Z,4.76
2018-01-12T12:56:12.685Z,4.83
2018-01-12T12:57:12.132Z,4.72
2018-01-12T12:58:12.392Z,4.76
2018-01-12T12:59:12.636Z,4.85
2018-01-12T13:00:12.350Z,4.91
2018-01-12T13:01:12.337Z,4.91
2018-01-12T13:02:12.071Z,4.92
2018-01-12T13:03:12.328Z,4.95
2018-01-12T13:04:12.023Z,4.97
2018-01-12T13:05:12.007Z,5.03
2018-01-12T13:06:12.281Z,5.12
2018-01-12T13:07:12.613Z,5.15
2018-01-12T13:08:12.234Z,5.16
2018-01-12T13:09:12.220Z,5.18
2018-01-12T13:10:11.935Z,5.2
2018-01-12T13:11:12.191Z,5.2
2018-01-12T13:12:11.902Z,5.15
2018-01-12T13:13:12.158Z,5.15
2018-01-12T13:14:12.149Z,5.2
2018-01-12T13:15:12.405Z,5.21
2018-01-12T13:16:12.388Z,5.23
2018-01-12T13:17:12.369Z,5.15
2018-01-12T13:18:12.088Z,5.23
2018-01-12T13:19:12.075Z,5.2
2018-01-12T13:20:11.799Z,5.3